createdAt,value
2023-04-12T00:04:58.167Z,19.34
2023-04-12T00:10:20.239Z,19.32
2023-04-12T00:15:42.138Z,19.29
2023-04-12T00:21:04.133Z,19.28
2023-04-12T00:26:26.121Z,19.25
2023-04-12T00:31:48.026Z,19.23
2023-04-12T00:37:09.915Z,19.24
2023-04-12T00:42:31.804Z,19.22
2023-04-12T00:47:54.482Z,19.21
2023-04-12T00:53:19.079Z,19.19
2023-04-12T00:58:41.847Z,19.18
2023-04-12T01:04:05.043Z,19.17
2023-04-12T01:09:46.927Z,19.18
2023-04-12T01:15:14.287Z,19.16
2023-04-12T01:20:45.114Z,19.14
2023-04-12T01:26:38.130Z,19.14
2023-04-12T01:32:03.340Z,19.12
2023-04-12T01:37:26.321Z,19.10
2023-04-12T01:42:48.224Z,19.07
2023-04-12T01:48:12.500Z,19.07
2023-04-12T01:53:45.680Z,19.04
2023-04-12T01:59:09.494Z,19.04
2023-04-12T02:04:32.581Z,19.02
2023-04-12T02:09:54.408Z,18.99
2023-04-12T02:15:21.727Z,18.99
2023-04-12T02:20:44.142Z,18.98
2023-04-12T02:26:06.328Z,18.97
2023-04-12T02:31:28.330Z,18.96
2023-04-12T02:36:50.758Z,18.94
2023-04-12T02:42:12.619Z,18.94
2023-04-12T02:52:56.564Z,18.90
2023-04-12T02:58:19.221Z,18.89
2023-04-12T03:03:41.386Z,18.89
2023-04-12T03:09:03.413Z,18.89
2023-04-12T03:14:25.216Z,18.87
2023-04-12T03:19:47.189Z,18.85
2023-04-12T03:25:10.271Z,18.83
2023-04-12T03:30:32.277Z,18.82
2023-04-12T03:35:54.186Z,18.80
2023-04-12T03:41:16.240Z,18.79
2023-04-12T03:46:38.455Z,18.77
2023-04-12T03:52:00.342Z,18.77
2023-04-12T03:57:22.246Z,18.76
2023-04-12T04:02:44.369Z,18.75
2023-04-12T04:08:07.952Z,18.75
2023-04-12T04:13:29.799Z,18.73
2023-04-12T04:18:51.949Z,18.72
2023-04-12T04:24:14.587Z,18.72
2023-04-12T04:29:45.729Z,18.70
2023-04-12T04:35:08.242Z,18.70
2023-04-12T04:40:30.065Z,18.68
2023-04-12T04:45:54.853Z,18.69
2023-04-12T04:51:17.067Z,18.67
2023-04-12T04:56:38.946Z,18.66
2023-04-12T05:02:00.828Z,18.65
2023-04-12T05:07:22.677Z,18.66
2023-04-12T05:12:44.445Z,18.88
2023-04-12T05:18:06.325Z,19.15
2023-04-12T05:23:28.363Z,19.34
2023-04-12T05:28:50.226Z,19.42
2023-04-12T05:34:12.074Z,19.45
2023-04-12T05:39:34.064Z,19.45
2023-04-12T05:44:56.730Z,19.41
2023-04-12T05:50:18.701Z,19.37
2023-04-12T05:55:40.604Z,19.30
2023-04-12T06:01:02.528Z,19.25
2023-04-12T06:06:24.491Z,19.19
2023-04-12T06:11:46.618Z,19.14
2023-04-12T06:17:08.429Z,19.11
2023-04-12T06:22:30.349Z,19.08
2023-04-12T06:27:52.208Z,19.06
2023-04-12T06:33:14.057Z,19.04
2023-04-12T06:38:35.887Z,19.02
2023-04-12T06:43:57.730Z,18.98
2023-04-12T06:49:20.169Z,18.97
2023-04-12T06:54:42.724Z,19.10
2023-04-12T07:00:05.061Z,19.22
2023-04-12T07:05:26.948Z,19.36
2023-04-12T07:10:54.302Z,19.50
2023-04-12T07:16:17.056Z,19.60
2023-04-12T07:21:38.920Z,19.63
2023-04-12T07:27:00.788Z,19.72
2023-04-12T07:32:23.646Z,19.78
2023-04-12T07:37:45.552Z,19.83
2023-04-12T07:43:07.413Z,19.87
2023-04-12T07:48:29.330Z,19.90
2023-04-12T07:53:52.044Z,19.93
2023-04-12T07:59:13.884Z,19.93
2023-04-12T08:04:36.027Z,19.94
2023-04-12T08:09:57.827Z,19.95
2023-04-12T08:15:19.725Z,19.98
2023-04-12T08:20:42.585Z,19.99
2023-04-12T08:26:04.596Z,20.00
2023-04-12T08:31:26.501Z,19.99
2023-04-12T08:36:48.328Z,20.02
2023-04-12T08:42:11.470Z,20.06
2023-04-12T08:47:42.389Z,20.14
2023-04-12T08:53:05.021Z,20.18
2023-04-12T08:58:27.382Z,20.19
2023-04-12T09:03:49.812Z,20.18
2023-04-12T09:09:12.021Z,20.16
2023-04-12T09:14:33.918Z,20.15
2023-04-12T09:19:56.617Z,20.15
2023-04-12T09:25:18.789Z,20.16
2023-04-12T09:30:43.558Z,20.22
2023-04-12T09:36:06.949Z,20.27
2023-04-12T09:41:32.398Z,20.31
2023-04-12T09:46:54.403Z,20.29
2023-04-12T09:52:32.481Z,20.23
2023-04-12T09:57:56.385Z,20.20
2023-04-12T10:03:19.053Z,20.19
2023-04-12T10:08:42.194Z,20.18
2023-04-12T10:14:04.216Z,20.17
2023-04-12T10:19:27.939Z,20.20
2023-04-12T10:24:50.066Z,20.23
2023-04-12T10:30:20.992Z,20.28
2023-04-12T10:35:48.660Z,20.27
2023-04-12T10:41:14.608Z,20.25
2023-04-12T10:46:39.869Z,20.23
2023-04-12T10:52:02.739Z,20.19
2023-04-12T10:57:45.416Z,20.21
2023-04-12T11:03:12.646Z,20.17
2023-04-12T11:08:40.030Z,20.13
2023-04-12T11:14:02.773Z,20.10
2023-04-12T11:19:25.396Z,20.08
2023-04-12T11:24:52.416Z,20.06
2023-04-12T11:30:14.442Z,20.09
2023-04-12T11:35:36.443Z,20.11
2023-04-12T11:40:58.372Z,20.12
2023-04-12T11:46:20.293Z,20.13
2023-04-12T11:51:42.251Z,20.14
2023-04-12T11:57:05.690Z,20.15
2023-04-12T12:02:32.354Z,20.14
2023-04-12T12:07:58.384Z,20.11
2023-04-12T12:13:21.562Z,20.07
2023-04-12T12:18:45.004Z,20.03
2023-04-12T12:24:07.155Z,19.98
2023-04-12T12:29:35.228Z,19.97
2023-04-12T12:34:58.669Z,19.92
2023-04-12T12:40:29.684Z,19.93
2023-04-12T12:45:51.608Z,19.93
2023-04-12T12:51:17.944Z,19.96
2023-04-12T12:56:39.789Z,20.01
2023-04-12T13:02:01.932Z,20.04
2023-04-12T13:07:23.911Z,20.09
2023-04-12T13:12:46.347Z,20.16
2023-04-12T13:18:08.499Z,20.20
2023-04-12T13:23:30.477Z,20.26
2023-04-12T13:28:52.309Z,20.31
2023-04-12T13:34:14.099Z,20.36
2023-04-12T13:39:36.701Z,20.37
2023-04-12T13:44:58.558Z,20.37
2023-04-12T13:50:20.442Z,20.37
2023-04-12T13:55:42.273Z,20.35
2023-04-12T14:01:04.222Z,20.33
2023-04-12T14:06:27.444Z,20.31
2023-04-12T14:11:49.528Z,20.31
2023-04-12T14:17:11.603Z,20.29
2023-04-12T14:22:33.603Z,20.29
2023-04-12T14:27:55.539Z,20.29
2023-04-12T14:33:18.240Z,20.31
2023-04-12T14:38:40.147Z,20.31
2023-04-12T14:44:02.445Z,20.32
2023-04-12T14:49:24.448Z,20.34
2023-04-12T14:54:46.337Z,20.34
2023-04-12T15:00:13.581Z,20.38
2023-04-12T15:05:36.426Z,20.42
2023-04-12T15:10:58.380Z,20.44
2023-04-12T15:16:20.289Z,20.45
2023-04-12T15:21:43.909Z,20.40
2023-04-12T15:27:06.710Z,20.36
2023-04-12T15:32:29.572Z,20.34
2023-04-12T15:37:52.254Z,20.34
2023-04-12T15:43:14.154Z,20.35
2023-04-12T15:48:39.061Z,20.34
2023-04-12T15:54:01.405Z,20.33
2023-04-12T15:59:23.276Z,20.29
2023-04-12T16:04:46.113Z,20.26
2023-04-12T16:10:08.700Z,20.22
2023-04-12T16:15:30.640Z,20.17
2023-04-12T16:20:52.497Z,20.15
2023-04-12T16:26:17.613Z,20.08
2023-04-12T16:31:39.524Z,20.06
2023-04-12T16:37:01.920Z,20.07
2023-04-12T16:42:24.278Z,20.12
2023-04-12T16:47:47.363Z,20.19
2023-04-12T16:53:09.230Z,20.31
2023-04-12T16:58:31.652Z,20.40
2023-04-12T17:03:53.605Z,20.45
2023-04-12T17:09:15.656Z,20.50
2023-04-12T17:14:37.621Z,20.53
2023-04-12T17:19:59.441Z,20.61
2023-04-12T17:25:23.154Z,20.71
2023-04-12T17:30:47.822Z,20.79
2023-04-12T17:36:11.831Z,20.87
2023-04-12T17:41:33.960Z,20.95
2023-04-12T17:46:56.934Z,20.98
2023-04-12T17:52:18.790Z,20.98
2023-04-12T17:57:41.788Z,20.98
2023-04-12T18:03:03.916Z,20.95
2023-04-12T18:08:26.039Z,20.87
2023-04-12T18:13:47.898Z,20.76
2023-04-12T18:19:11.510Z,20.68
2023-04-12T18:24:33.755Z,20.65
2023-04-12T18:29:56.811Z,20.66
2023-04-12T18:35:18.853Z,20.70
2023-04-12T18:40:40.740Z,20.74
2023-04-12T18:46:02.567Z,20.78
2023-04-12T18:51:24.819Z,20.82
2023-04-12T18:56:46.686Z,20.84
2023-04-12T19:02:09.227Z,20.86
2023-04-12T19:07:31.519Z,20.84
2023-04-12T19:12:53.845Z,20.83
2023-04-12T19:18:16.278Z,20.92
2023-04-12T19:23:38.430Z,21.10
2023-04-12T19:29:00.277Z,21.25
2023-04-12T19:34:22.106Z,21.38
2023-04-12T19:39:43.995Z,21.48
2023-04-12T19:45:06.257Z,21.50
2023-04-12T19:50:31.160Z,21.52
2023-04-12T19:55:57.384Z,21.47
2023-04-12T20:01:19.242Z,21.40
2023-04-12T20:06:41.777Z,21.31
2023-04-12T20:12:04.054Z,21.21
2023-04-12T20:17:26.153Z,21.12
2023-04-12T20:22:52.228Z,21.05
2023-04-12T20:28:15.025Z,20.94
2023-04-12T20:33:36.897Z,20.83
2023-04-12T20:38:58.976Z,20.74
2023-04-12T20:44:21.452Z,20.65
2023-04-12T20:49:43.721Z,20.54
2023-04-12T20:55:07.597Z,20.44
2023-04-12T21:00:30.154Z,20.34
2023-04-12T21:05:53.035Z,20.26
2023-04-12T21:11:14.966Z,20.17
2023-04-12T21:16:41.781Z,20.11
2023-04-12T21:22:03.861Z,20.03
2023-04-12T21:27:26.980Z,19.97
2023-04-12T21:32:48.851Z,19.93
2023-04-12T21:38:11.125Z,19.88
2023-04-12T21:43:33.100Z,19.84
2023-04-12T21:48:55.063Z,19.80
2023-04-12T21:54:17.110Z,19.76
2023-04-12T21:59:39.439Z,19.69
2023-04-12T22:05:01.393Z,19.63
2023-04-12T22:10:23.227Z,19.60
2023-04-12T22:15:45.496Z,19.55
2023-04-12T22:21:08.385Z,19.52
2023-04-12T22:26:31.751Z,19.50
2023-04-12T22:31:53.694Z,19.46
2023-04-12T22:37:15.568Z,19.43
2023-04-12T22:42:37.918Z,19.38
2023-04-12T22:47:59.882Z,19.34
2023-04-12T22:53:22.678Z,19.30
2023-04-12T22:58:44.559Z,19.26
2023-04-12T23:04:06.703Z,19.25
2023-04-12T23:09:29.022Z,19.22
2023-04-12T23:14:51.234Z,19.21
2023-04-12T23:20:14.589Z,19.18
2023-04-12T23:25:39.817Z,19.16
2023-04-12T23:31:02.070Z,19.14
2023-04-12T23:36:26.169Z,19.12
2023-04-12T23:41:48.078Z,19.10
2023-04-12T23:47:10.088Z,19.09
2023-04-12T23:52:32.878Z,19.06
2023-04-12T23:57:54.874Z,19.04
